sensor_id;sensor_type;location;lat;lon;timestamp;temperature;humidity
67974;DHT22;54756;51.140;6.952;2022-12-07T00:00:23;4.80;99.90
67974;DHT22;54756;51.140;6.952;2022-12-07T00:02:23;4.70;99.90
67974;DHT22;54756;51.140;6.952;2022-12-07T00:04:24;4.70;99.90
67974;DHT22;54756;51.140;6.952;2022-12-07T00:06:24;4.70;99.90
67974;DHT22;54756;51.140;6.952;2022-12-07T00:08:25;4.70;99.90
67974;DHT22;54756;51.140;6.952;2022-12-07T00:10:25;4.70;99.90
67974;DHT22;54756;51.140;6.952;2022-12-07T00:12:26;4.70;99.90
67974;DHT22;54756;51.140;6.952;2022-12-07T00:14:26;4.60;99.90
67974;DHT22;54756;51.140;6.952;2022-12-07T00:16:29;4.60;99.90
67974;DHT22;54756;51.140;6.952;2022-12-07T00:18:30;4.60;99.90
67974;DHT22;54756;51.140;6.952;2022-12-07T00:20:31;4.60;99.90
67974;DHT22;54756;51.140;6.952;2022-12-07T00:22:31;4.60;99.90
67974;DHT22;54756;51.140;6.952;2022-12-07T00:24:32;4.60;99.90
67974;DHT22;54756;51.140;6.952;2022-12-07T00:26:35;4.60;99.90
67974;DHT22;54756;51.140;6.952;2022-12-07T00:28:36;4.60;99.90
67974;DHT22;54756;51.140;6.952;2022-12-07T00:30:37;4.60;99.90
67974;DHT22;54756;51.140;6.952;2022-12-07T00:32:37;4.60;99.90
67974;DHT22;54756;51.140;6.952;2022-12-07T00:34:38;4.60;99.90
67974;DHT22;54756;51.140;6.952;2022-12-07T00:36:38;4.60;99.90
67974;DHT22;54756;51.140;6.952;2022-12-07T00:38:40;4.60;99.90
67974;DHT22;54756;51.140;6.952;2022-12-07T00:40:40;4.60;99.90
67974;DHT22;54756;51.140;6.952;2022-12-07T00:42:41;4.60;99.90
67974;DHT22;54756;51.140;6.952;2022-12-07T00:44:41;4.60;99.90
67974;DHT22;54756;51.140;6.952;2022-12-07T00:46:42;4.60;99.90
67974;DHT22;54756;51.140;6.952;2022-12-07T00:48:43;4.60;99.90
67974;DHT22;54756;51.140;6.952;2022-12-07T00:50:43;4.60;99.90
67974;DHT22;54756;51.140;6.952;2022-12-07T00:52:44;4.60;99.90
67974;DHT22;54756;51.140;6.952;2022-12-07T00:54:44;4.60;99.90
67974;DHT22;54756;51.140;6.952;2022-12-07T00:56:45;4.60;99.90
67974;DHT22;54756;51.140;6.952;2022-12-07T00:58:56;4.60;99.90
67974;DHT22;54756;51.140;6.952;2022-12-07T01:01:00;4.60;99.90
67974;DHT22;54756;51.140;6.952;2022-12-07T01:03:02;4.60;99.90
67974;DHT22;54756;51.140;6.952;2022-12-07T01:05:03;4.60;99.90
67974;DHT22;54756;51.140;6.952;2022-12-07T01:07:03;4.60;99.90
67974;DHT22;54756;51.140;6.952;2022-12-07T01:09:04;4.60;99.90
67974;DHT22;54756;51.140;6.952;2022-12-07T01:11:07;4.60;99.90
67974;DHT22;54756;51.140;6.952;2022-12-07T01:13:08;4.60;99.90
67974;DHT22;54756;51.140;6.952;2022-12-07T01:15:09;4.60;99.90
67974;DHT22;54756;51.140;6.952;2022-12-07T01:17:09;4.60;99.90
67974;DHT22;54756;51.140;6.952;2022-12-07T01:19:10;4.60;99.90
67974;DHT22;54756;51.140;6.952;2022-12-07T01:21:13;4.60;99.90
67974;DHT22;54756;51.140;6.952;2022-12-07T01:23:14;4.60;99.90
67974;DHT22;54756;51.140;6.952;2022-12-07T01:25:15;4.60;99.90
67974;DHT22;54756;51.140;6.952;2022-12-07T01:27:15;4.70;99.90
67974;DHT22;54756;51.140;6.952;2022-12-07T01:29:16;4.70;99.90
67974;DHT22;54756;51.140;6.952;2022-12-07T01:31:19;4.70;99.90
67974;DHT22;54756;51.140;6.952;2022-12-07T01:33:19;4.70;99.90
67974;DHT22;54756;51.140;6.952;2022-12-07T01:35:20;4.70;99.90
67974;DHT22;54756;51.140;6.952;2022-12-07T01:37:21;4.70;99.90
67974;DHT22;54756;51.140;6.952;2022-12-07T01:39:21;4.70;99.90
67974;DHT22;54756;51.140;6.952;2022-12-07T01:41:24;4.70;99.90
67974;DHT22;54756;51.140;6.952;2022-12-07T01:43:27;4.70;99.90
67974;DHT22;54756;51.140;6.952;2022-12-07T01:47:31;4.70;99.90
67974;DHT22;54756;51.140;6.952;2022-12-07T01:51:37;4.70;99.90
67974;DHT22;54756;51.140;6.952;2022-12-07T01:53:43;4.70;99.90
67974;DHT22;54756;51.140;6.952;2022-12-07T01:55:48;4.70;99.90
67974;DHT22;54756;51.140;6.952;2022-12-07T01:57:53;4.70;99.90
67974;DHT22;54756;51.140;6.952;2022-12-07T01:59:55;4.70;99.90
67974;DHT22;54756;51.140;6.952;2022-12-07T02:01:56;4.70;99.90
67974;DHT22;54756;51.140;6.952;2022-12-07T02:03:58;4.70;99.90
67974;DHT22;54756;51.140;6.952;2022-12-07T02:05:59;4.70;99.90
67974;DHT22;54756;51.140;6.952;2022-12-07T02:08:01;4.70;99.90
67974;DHT22;54756;51.140;6.952;2022-12-07T02:10:14;4.70;99.90
67974;DHT22;54756;51.140;6.952;2022-12-07T02:12:15;4.70;99.90
67974;DHT22;54756;51.140;6.952;2022-12-07T02:14:16;4.70;99.90
67974;DHT22;54756;51.140;6.952;2022-12-07T02:18:36;4.70;99.90
67974;DHT22;54756;51.140;6.952;2022-12-07T02:20:57;4.70;99.90
67974;DHT22;54756;51.140;6.952;2022-12-07T02:27:53;4.80;99.90
67974;DHT22;54756;51.140;6.952;2022-12-07T02:30:12;4.80;99.90
67974;DHT22;54756;51.140;6.952;2022-12-07T02:32:42;4.80;99.90
67974;DHT22;54756;51.140;6.952;2022-12-07T02:35:05;4.80;99.90
67974;DHT22;54756;51.140;6.952;2022-12-07T02:37:17;4.80;99.90
67974;DHT22;54756;51.140;6.952;2022-12-07T02:39:26;4.80;99.90
67974;DHT22;54756;51.140;6.952;2022-12-07T02:41:36;4.80;99.90
67974;DHT22;54756;51.140;6.952;2022-12-07T02:43:56;4.80;99.90
67974;DHT22;54756;51.140;6.952;2022-12-07T02:46:02;4.80;99.90
67974;DHT22;54756;51.140;6.952;2022-12-07T02:48:05;4.80;99.90
67974;DHT22;54756;51.140;6.952;2022-12-07T02:50:07;4.80;99.90
67974;DHT22;54756;51.140;6.952;2022-12-07T02:52:08;4.80;99.90
67974;DHT22;54756;51.140;6.952;2022-12-07T02:54:12;4.80;99.90
67974;DHT22;54756;51.140;6.952;2022-12-07T02:56:17;4.80;99.90
67974;DHT22;54756;51.140;6.952;2022-12-07T02:59:25;4.80;99.90
67974;DHT22;54756;51.140;6.952;2022-12-07T03:01:28;4.80;99.90
67974;DHT22;54756;51.140;6.952;2022-12-07T03:03:31;4.80;99.90
67974;DHT22;54756;51.140;6.952;2022-12-07T03:12:16;4.80;99.90
67974;DHT22;54756;51.140;6.952;2022-12-07T03:14:22;4.80;99.90
67974;DHT22;54756;51.140;6.952;2022-12-07T03:16:34;4.80;99.90
67974;DHT22;54756;51.140;6.952;2022-12-07T03:18:53;4.80;99.90
67974;DHT22;54756;51.140;6.952;2022-12-07T03:20:58;4.80;99.90
67974;DHT22;54756;51.140;6.952;2022-12-07T03:23:00;4.80;99.90
67974;DHT22;54756;51.140;6.952;2022-12-07T03:25:05;4.80;99.90
67974;DHT22;54756;51.140;6.952;2022-12-07T03:27:11;4.80;99.90
67974;DHT22;54756;51.140;6.952;2022-12-07T03:29:24;4.80;99.90
67974;DHT22;54756;51.140;6.952;2022-12-07T03:31:29;4.80;99.90
67974;DHT22;54756;51.140;6.952;2022-12-07T03:36:11;4.80;99.90
67974;DHT22;54756;51.140;6.952;2022-12-07T03:42:26;4.80;99.90
67974;DHT22;54756;51.140;6.952;2022-12-07T03:44:27;4.80;99.90
67974;DHT22;54756;51.140;6.952;2022-12-07T03:51:06;4.70;99.90
67974;DHT22;54756;51.140;6.952;2022-12-07T03:53:18;4.70;99.90
67974;DHT22;54756;51.140;6.952;2022-12-07T03:55:34;4.70;99.90
67974;DHT22;54756;51.140;6.952;2022-12-07T03:57:35;4.70;99.90
67974;DHT22;54756;51.140;6.952;2022-12-07T03:59:37;4.60;99.90
67974;DHT22;54756;51.140;6.952;2022-12-07T04:01:40;4.60;99.90
67974;DHT22;54756;51.140;6.952;2022-12-07T04:03:41;4.60;99.90
67974;DHT22;54756;51.140;6.952;2022-12-07T04:05:42;4.60;99.90
67974;DHT22;54756;51.140;6.952;2022-12-07T04:07:43;4.60;99.90
67974;DHT22;54756;51.140;6.952;2022-12-07T04:09:44;4.60;99.90
67974;DHT22;54756;51.140;6.952;2022-12-07T04:11:44;4.60;99.90
67974;DHT22;54756;51.140;6.952;2022-12-07T04:13:45;4.70;99.90
67974;DHT22;54756;51.140;6.952;2022-12-07T04:16:04;4.70;99.90
67974;DHT22;54756;51.140;6.952;2022-12-07T04:18:04;4.70;99.90
67974;DHT22;54756;51.140;6.952;2022-12-07T04:20:06;4.70;99.90
67974;DHT22;54756;51.140;6.952;2022-12-07T04:22:07;4.70;99.90
67974;DHT22;54756;51.140;6.952;2022-12-07T04:24:09;4.70;99.90
67974;DHT22;54756;51.140;6.952;2022-12-07T04:26:09;4.70;99.90
67974;DHT22;54756;51.140;6.952;2022-12-07T04:28:10;4.70;99.90
67974;DHT22;54756;51.140;6.952;2022-12-07T04:30:10;4.70;99.90
67974;DHT22;54756;51.140;6.952;2022-12-07T04:32:11;4.80;99.90
67974;DHT22;54756;51.140;6.952;2022-12-07T04:34:13;4.80;99.90
67974;DHT22;54756;51.140;6.952;2022-12-07T04:36:14;4.80;99.90
67974;DHT22;54756;51.140;6.952;2022-12-07T04:38:15;4.90;99.90
67974;DHT22;54756;51.140;6.952;2022-12-07T04:40:15;4.90;99.90
67974;DHT22;54756;51.140;6.952;2022-12-07T04:42:16;4.90;99.90
67974;DHT22;54756;51.140;6.952;2022-12-07T04:44:17;4.90;99.90
67974;DHT22;54756;51.140;6.952;2022-12-07T04:46:18;4.90;99.90
67974;DHT22;54756;51.140;6.952;2022-12-07T04:48:18;4.90;99.90
67974;DHT22;54756;51.140;6.952;2022-12-07T04:50:19;4.90;99.90
67974;DHT22;54756;51.140;6.952;2022-12-07T04:52:19;4.90;99.90
67974;DHT22;54756;51.140;6.952;2022-12-07T04:54:20;4.90;99.90
67974;DHT22;54756;51.140;6.952;2022-12-07T04:56:21;4.90;99.90
67974;DHT22;54756;51.140;6.952;2022-12-07T04:58:22;4.90;99.90
67974;DHT22;54756;51.140;6.952;2022-12-07T05:00:23;4.80;99.90
67974;DHT22;54756;51.140;6.952;2022-12-07T05:02:23;4.80;99.90
67974;DHT22;54756;51.140;6.952;2022-12-07T05:04:24;4.80;99.90
67974;DHT22;54756;51.140;6.952;2022-12-07T05:06:24;4.80;99.90
67974;DHT22;54756;51.140;6.952;2022-12-07T05:08:25;4.80;99.90
67974;DHT22;54756;51.140;6.952;2022-12-07T05:10:25;4.80;99.90
67974;DHT22;54756;51.140;6.952;2022-12-07T05:12:26;4.80;99.90
67974;DHT22;54756;51.140;6.952;2022-12-07T05:14:26;4.80;99.90
67974;DHT22;54756;51.140;6.952;2022-12-07T05:16:27;4.80;99.90
67974;DHT22;54756;51.140;6.952;2022-12-07T05:18:28;4.80;99.90
67974;DHT22;54756;51.140;6.952;2022-12-07T05:20:29;4.80;99.90
67974;DHT22;54756;51.140;6.952;2022-12-07T05:22:29;4.80;99.90
67974;DHT22;54756;51.140;6.952;2022-12-07T05:24:30;4.80;99.90
67974;DHT22;54756;51.140;6.952;2022-12-07T05:26:30;4.70;99.90
67974;DHT22;54756;51.140;6.952;2022-12-07T05:28:31;4.70;99.90
67974;DHT22;54756;51.140;6.952;2022-12-07T05:30:32;4.60;99.90
67974;DHT22;54756;51.140;6.952;2022-12-07T05:32:32;4.60;99.90
67974;DHT22;54756;51.140;6.952;2022-12-07T05:34:33;4.60;99.90
67974;DHT22;54756;51.140;6.952;2022-12-07T05:36:33;4.50;99.90
67974;DHT22;54756;51.140;6.952;2022-12-07T05:38:34;4.50;99.90
67974;DHT22;54756;51.140;6.952;2022-12-07T05:40:35;4.50;99.90
67974;DHT22;54756;51.140;6.952;2022-12-07T05:42:36;4.50;99.90
67974;DHT22;54756;51.140;6.952;2022-12-07T05:44:41;4.50;99.90
67974;DHT22;54756;51.140;6.952;2022-12-07T05:46:42;4.50;99.90
67974;DHT22;54756;51.140;6.952;2022-12-07T05:48:42;4.40;99.90
67974;DHT22;54756;51.140;6.952;2022-12-07T05:50:43;4.40;99.90
67974;DHT22;54756;51.140;6.952;2022-12-07T05:52:43;4.40;99.90
67974;DHT22;54756;51.140;6.952;2022-12-07T05:54:44;4.30;99.90
67974;DHT22;54756;51.140;6.952;2022-12-07T05:56:45;4.30;99.90
67974;DHT22;54756;51.140;6.952;2022-12-07T05:58:45;4.20;99.90
67974;DHT22;54756;51.140;6.952;2022-12-07T06:01:05;4.10;99.90
67974;DHT22;54756;51.140;6.952;2022-12-07T06:03:05;4.10;99.90
67974;DHT22;54756;51.140;6.952;2022-12-07T06:05:06;4.00;99.90
67974;DHT22;54756;51.140;6.952;2022-12-07T06:07:07;4.00;99.90
67974;DHT22;54756;51.140;6.952;2022-12-07T06:09:08;4.00;99.90
67974;DHT22;54756;51.140;6.952;2022-12-07T06:11:09;4.00;99.90
67974;DHT22;54756;51.140;6.952;2022-12-07T06:13:28;4.00;99.90
67974;DHT22;54756;51.140;6.952;2022-12-07T06:15:28;4.00;99.90
67974;DHT22;54756;51.140;6.952;2022-12-07T06:17:29;4.00;99.90
67974;DHT22;54756;51.140;6.952;2022-12-07T06:19:29;4.00;99.90
67974;DHT22;54756;51.140;6.952;2022-12-07T06:21:30;4.00;99.90
67974;DHT22;54756;51.140;6.952;2022-12-07T06:23:31;4.10;99.90
67974;DHT22;54756;51.140;6.952;2022-12-07T06:25:31;4.10;99.90
67974;DHT22;54756;51.140;6.952;2022-12-07T06:27:32;4.10;99.90
67974;DHT22;54756;51.140;6.952;2022-12-07T06:29:33;4.20;99.90
67974;DHT22;54756;51.140;6.952;2022-12-07T06:31:34;4.20;99.90
67974;DHT22;54756;51.140;6.952;2022-12-07T06:33:35;4.20;99.90
67974;DHT22;54756;51.140;6.952;2022-12-07T06:35:36;4.20;99.90
67974;DHT22;54756;51.140;6.952;2022-12-07T06:37:36;4.30;99.90
67974;DHT22;54756;51.140;6.952;2022-12-07T06:39:37;4.30;99.90
67974;DHT22;54756;51.140;6.952;2022-12-07T06:41:39;4.30;99.90
67974;DHT22;54756;51.140;6.952;2022-12-07T06:43:39;4.30;99.90
67974;DHT22;54756;51.140;6.952;2022-12-07T06:45:41;4.20;99.90
67974;DHT22;54756;51.140;6.952;2022-12-07T06:47:41;4.20;99.90
67974;DHT22;54756;51.140;6.952;2022-12-07T06:49:42;4.10;99.90
67974;DHT22;54756;51.140;6.952;2022-12-07T06:51:43;4.10;99.90
67974;DHT22;54756;51.140;6.952;2022-12-07T06:53:43;4.00;99.90
67974;DHT22;54756;51.140;6.952;2022-12-07T06:55:44;4.00;99.90
67974;DHT22;54756;51.140;6.952;2022-12-07T06:57:44;4.00;99.90
67974;DHT22;54756;51.140;6.952;2022-12-07T06:59:45;4.00;99.90
67974;DHT22;54756;51.140;6.952;2022-12-07T07:01:45;4.00;99.90
67974;DHT22;54756;51.140;6.952;2022-12-07T07:03:46;4.00;99.90
67974;DHT22;54756;51.140;6.952;2022-12-07T07:05:47;4.00;99.90
67974;DHT22;54756;51.140;6.952;2022-12-07T07:07:49;4.00;99.90
67974;DHT22;54756;51.140;6.952;2022-12-07T07:09:49;4.10;99.90
67974;DHT22;54756;51.140;6.952;2022-12-07T07:11:50;4.10;99.90
67974;DHT22;54756;51.140;6.952;2022-12-07T07:13:50;4.10;99.90
67974;DHT22;54756;51.140;6.952;2022-12-07T07:15:51;4.10;99.90
67974;DHT22;54756;51.140;6.952;2022-12-07T07:17:51;4.20;99.90
67974;DHT22;54756;51.140;6.952;2022-12-07T07:19:52;4.20;99.90
67974;DHT22;54756;51.140;6.952;2022-12-07T07:21:52;4.20;99.90
67974;DHT22;54756;51.140;6.952;2022-12-07T07:23:53;4.20;99.90
67974;DHT22;54756;51.140;6.952;2022-12-07T07:25:53;4.20;99.90
67974;DHT22;54756;51.140;6.952;2022-12-07T07:27:54;4.20;99.90
67974;DHT22;54756;51.140;6.952;2022-12-07T07:29:55;4.20;99.90
67974;DHT22;54756;51.140;6.952;2022-12-07T07:31:55;4.30;99.90
67974;DHT22;54756;51.140;6.952;2022-12-07T07:33:56;4.20;99.90
67974;DHT22;54756;51.140;6.952;2022-12-07T07:35:56;4.30;99.90
67974;DHT22;54756;51.140;6.952;2022-12-07T07:37:57;4.30;99.90
67974;DHT22;54756;51.140;6.952;2022-12-07T07:39:57;4.30;99.90
67974;DHT22;54756;51.140;6.952;2022-12-07T07:41:58;4.30;99.90
67974;DHT22;54756;51.140;6.952;2022-12-07T07:43:58;4.30;99.90
67974;DHT22;54756;51.140;6.952;2022-12-07T07:45:59;4.30;99.90
67974;DHT22;54756;51.140;6.952;2022-12-07T07:47:59;4.30;99.90
67974;DHT22;54756;51.140;6.952;2022-12-07T07:50:00;4.30;99.90
67974;DHT22;54756;51.140;6.952;2022-12-07T07:52:00;4.30;99.90
67974;DHT22;54756;51.140;6.952;2022-12-07T07:54:01;4.30;99.90
67974;DHT22;54756;51.140;6.952;2022-12-07T07:56:02;4.30;99.90
67974;DHT22;54756;51.140;6.952;2022-12-07T07:58:03;4.30;99.90
67974;DHT22;54756;51.140;6.952;2022-12-07T08:00:05;4.30;99.90
67974;DHT22;54756;51.140;6.952;2022-12-07T08:02:06;4.30;99.90
67974;DHT22;54756;51.140;6.952;2022-12-07T08:04:08;4.40;99.90
67974;DHT22;54756;51.140;6.952;2022-12-07T08:06:08;4.40;99.90
67974;DHT22;54756;51.140;6.952;2022-12-07T08:08:09;4.40;99.90
67974;DHT22;54756;51.140;6.952;2022-12-07T08:10:12;4.40;99.90
67974;DHT22;54756;51.140;6.952;2022-12-07T08:12:13;4.40;99.90
67974;DHT22;54756;51.140;6.952;2022-12-07T08:14:13;4.40;99.90
67974;DHT22;54756;51.140;6.952;2022-12-07T08:16:14;4.40;99.90
67974;DHT22;54756;51.140;6.952;2022-12-07T08:18:15;4.50;99.90
67974;DHT22;54756;51.140;6.952;2022-12-07T08:20:16;4.50;99.90
67974;DHT22;54756;51.140;6.952;2022-12-07T08:22:16;4.50;99.90
67974;DHT22;54756;51.140;6.952;2022-12-07T08:24:17;4.50;99.90
67974;DHT22;54756;51.140;6.952;2022-12-07T08:26:18;4.50;99.90
67974;DHT22;54756;51.140;6.952;2022-12-07T08:28:18;4.50;99.90
67974;DHT22;54756;51.140;6.952;2022-12-07T08:30:20;4.50;99.90
67974;DHT22;54756;51.140;6.952;2022-12-07T08:32:20;4.60;99.90
67974;DHT22;54756;51.140;6.952;2022-12-07T08:34:21;4.60;99.90
67974;DHT22;54756;51.140;6.952;2022-12-07T08:36:21;4.60;99.90
67974;DHT22;54756;51.140;6.952;2022-12-07T08:38:23;4.60;99.90
67974;DHT22;54756;51.140;6.952;2022-12-07T08:40:23;4.60;99.90
67974;DHT22;54756;51.140;6.952;2022-12-07T08:42:24;4.70;99.90
67974;DHT22;54756;51.140;6.952;2022-12-07T08:44:29;4.70;99.90
67974;DHT22;54756;51.140;6.952;2022-12-07T08:46:46;4.70;99.90
67974;DHT22;54756;51.140;6.952;2022-12-07T08:49:02;4.70;99.90
67974;DHT22;54756;51.140;6.952;2022-12-07T08:51:03;4.80;99.90
67974;DHT22;54756;51.140;6.952;2022-12-07T08:53:05;4.90;99.90
67974;DHT22;54756;51.140;6.952;2022-12-07T08:55:06;5.00;99.90
67974;DHT22;54756;51.140;6.952;2022-12-07T08:57:08;5.00;99.90
67974;DHT22;54756;51.140;6.952;2022-12-07T08:59:09;5.10;99.90
67974;DHT22;54756;51.140;6.952;2022-12-07T09:01:10;5.10;99.90
67974;DHT22;54756;51.140;6.952;2022-12-07T09:03:11;5.10;99.90
67974;DHT22;54756;51.140;6.952;2022-12-07T09:05:12;5.10;99.90
67974;DHT22;54756;51.140;6.952;2022-12-07T09:07:15;5.20;99.90
67974;DHT22;54756;51.140;6.952;2022-12-07T09:09:15;5.20;99.90
67974;DHT22;54756;51.140;6.952;2022-12-07T09:11:16;5.20;99.90
67974;DHT22;54756;51.140;6.952;2022-12-07T09:13:16;5.20;99.90
67974;DHT22;54756;51.140;6.952;2022-12-07T09:15:17;5.20;99.90
67974;DHT22;54756;51.140;6.952;2022-12-07T09:17:18;5.30;99.90
67974;DHT22;54756;51.140;6.952;2022-12-07T09:19:18;5.30;99.90
67974;DHT22;54756;51.140;6.952;2022-12-07T09:21:19;5.20;99.90
67974;DHT22;54756;51.140;6.952;2022-12-07T09:23:19;5.20;99.90
67974;DHT22;54756;51.140;6.952;2022-12-07T09:25:20;5.20;99.90
67974;DHT22;54756;51.140;6.952;2022-12-07T09:27:20;5.20;99.90
67974;DHT22;54756;51.140;6.952;2022-12-07T09:29:21;5.20;99.90
67974;DHT22;54756;51.140;6.952;2022-12-07T09:31:21;5.20;99.90
67974;DHT22;54756;51.140;6.952;2022-12-07T09:33:22;5.20;99.90
67974;DHT22;54756;51.140;6.952;2022-12-07T09:35:24;5.20;99.90
67974;DHT22;54756;51.140;6.952;2022-12-07T09:37:24;5.20;99.90
67974;DHT22;54756;51.140;6.952;2022-12-07T09:39:25;5.30;99.90
67974;DHT22;54756;51.140;6.952;2022-12-07T09:41:27;5.40;99.90
67974;DHT22;54756;51.140;6.952;2022-12-07T09:43:28;5.50;99.90
67974;DHT22;54756;51.140;6.952;2022-12-07T09:45:38;5.60;99.90
67974;DHT22;54756;51.140;6.952;2022-12-07T09:47:39;5.70;99.90
67974;DHT22;54756;51.140;6.952;2022-12-07T09:49:39;5.70;99.90
67974;DHT22;54756;51.140;6.952;2022-12-07T09:51:40;5.90;99.90
67974;DHT22;54756;51.140;6.952;2022-12-07T09:53:41;6.00;99.90
67974;DHT22;54756;51.140;6.952;2022-12-07T09:55:42;6.10;99.90
67974;DHT22;54756;51.140;6.952;2022-12-07T09:57:43;6.20;99.90
67974;DHT22;54756;51.140;6.952;2022-12-07T09:59:44;6.20;99.90
67974;DHT22;54756;51.140;6.952;2022-12-07T10:01:48;6.20;99.90
67974;DHT22;54756;51.140;6.952;2022-12-07T10:03:52;6.20;99.90
67974;DHT22;54756;51.140;6.952;2022-12-07T10:05:53;6.20;99.90
67974;DHT22;54756;51.140;6.952;2022-12-07T10:07:53;6.20;99.90
67974;DHT22;54756;51.140;6.952;2022-12-07T10:09:54;6.20;99.90
67974;DHT22;54756;51.140;6.952;2022-12-07T10:12:05;6.20;99.90
67974;DHT22;54756;51.140;6.952;2022-12-07T10:14:13;6.20;99.90
67974;DHT22;54756;51.140;6.952;2022-12-07T10:18:41;6.20;99.90
67974;DHT22;54756;51.140;6.952;2022-12-07T10:20:41;6.20;99.90
67974;DHT22;54756;51.140;6.952;2022-12-07T10:25:08;6.20;99.90
67974;DHT22;54756;51.140;6.952;2022-12-07T10:27:26;6.20;99.90
67974;DHT22;54756;51.140;6.952;2022-12-07T10:29:39;6.20;99.90
67974;DHT22;54756;51.140;6.952;2022-12-07T10:31:40;6.20;99.90
67974;DHT22;54756;51.140;6.952;2022-12-07T10:34:00;6.30;99.90
67974;DHT22;54756;51.140;6.952;2022-12-07T10:38:20;6.40;99.90
67974;DHT22;54756;51.140;6.952;2022-12-07T10:40:30;6.40;99.90
67974;DHT22;54756;51.140;6.952;2022-12-07T10:42:32;6.40;99.90
67974;DHT22;54756;51.140;6.952;2022-12-07T10:44:33;6.50;99.90
67974;DHT22;54756;51.140;6.952;2022-12-07T10:46:49;6.50;99.90
67974;DHT22;54756;51.140;6.952;2022-12-07T10:56:18;6.60;99.90
67974;DHT22;54756;51.140;6.952;2022-12-07T10:58:49;6.70;99.90
67974;DHT22;54756;51.140;6.952;2022-12-07T11:01:25;6.80;99.90
67974;DHT22;54756;51.140;6.952;2022-12-07T11:10:29;6.70;99.90
67974;DHT22;54756;51.140;6.952;2022-12-07T11:12:37;6.70;99.90
67974;DHT22;54756;51.140;6.952;2022-12-07T11:15:04;6.70;99.90
67974;DHT22;54756;51.140;6.952;2022-12-07T11:19:34;6.70;99.90
67974;DHT22;54756;51.140;6.952;2022-12-07T11:22:03;6.80;99.90
67974;DHT22;54756;51.140;6.952;2022-12-07T11:24:19;7.00;99.90
67974;DHT22;54756;51.140;6.952;2022-12-07T11:28:54;7.40;99.90
67974;DHT22;54756;51.140;6.952;2022-12-07T11:37:34;7.90;99.90
67974;DHT22;54756;51.140;6.952;2022-12-07T11:39:39;8.00;99.90
67974;DHT22;54756;51.140;6.952;2022-12-07T11:41:42;8.10;99.90
67974;DHT22;54756;51.140;6.952;2022-12-07T11:46:25;8.50;99.90
67974;DHT22;54756;51.140;6.952;2022-12-07T11:48:35;8.70;99.90
67974;DHT22;54756;51.140;6.952;2022-12-07T11:50:45;8.80;99.90
67974;DHT22;54756;51.140;6.952;2022-12-07T11:53:29;8.80;99.90
67974;DHT22;54756;51.140;6.952;2022-12-07T12:00:49;9.70;99.90
67974;DHT22;54756;51.140;6.952;2022-12-07T12:03:11;10.20;99.90
67974;DHT22;54756;51.140;6.952;2022-12-07T12:05:17;10.50;99.90
67974;DHT22;54756;51.140;6.952;2022-12-07T12:07:22;10.70;99.90
67974;DHT22;54756;51.140;6.952;2022-12-07T12:09:29;10.80;99.90
67974;DHT22;54756;51.140;6.952;2022-12-07T12:23:16;10.00;99.90
67974;DHT22;54756;51.140;6.952;2022-12-07T12:25:27;10.90;99.90
67974;DHT22;54756;51.140;6.952;2022-12-07T12:27:32;12.10;99.90
67974;DHT22;54756;51.140;6.952;2022-12-07T12:29:36;12.60;99.90
67974;DHT22;54756;51.140;6.952;2022-12-07T12:31:39;12.80;99.90
67974;DHT22;54756;51.140;6.952;2022-12-07T12:33:52;12.90;99.90
67974;DHT22;54756;51.140;6.952;2022-12-07T12:36:19;13.30;99.90
67974;DHT22;54756;51.140;6.952;2022-12-07T12:38:24;12.90;99.90
67974;DHT22;54756;51.140;6.952;2022-12-07T12:42:44;11.90;99.90
67974;DHT22;54756;51.140;6.952;2022-12-07T12:45:21;11.70;99.90
67974;DHT22;54756;51.140;6.952;2022-12-07T12:48:00;12.30;99.90
67974;DHT22;54756;51.140;6.952;2022-12-07T12:50:17;12.30;99.90
67974;DHT22;54756;51.140;6.952;2022-12-07T12:57:18;11.60;99.90
67974;DHT22;54756;51.140;6.952;2022-12-07T13:01:37;11.40;99.90
67974;DHT22;54756;51.140;6.952;2022-12-07T13:03:52;11.50;99.90
67974;DHT22;54756;51.140;6.952;2022-12-07T13:08:24;11.20;99.90
67974;DHT22;54756;51.140;6.952;2022-12-07T13:12:32;10.20;99.90
67974;DHT22;54756;51.140;6.952;2022-12-07T13:14:57;9.70;99.90
67974;DHT22;54756;51.140;6.952;2022-12-07T13:16:58;9.20;99.90
67974;DHT22;54756;51.140;6.952;2022-12-07T13:18:58;8.80;99.90
67974;DHT22;54756;51.140;6.952;2022-12-07T13:23:09;8.30;99.90
67974;DHT22;54756;51.140;6.952;2022-12-07T13:25:26;8.10;99.90
67974;DHT22;54756;51.140;6.952;2022-12-07T13:27:27;7.90;99.90
67974;DHT22;54756;51.140;6.952;2022-12-07T13:29:36;7.70;99.90
67974;DHT22;54756;51.140;6.952;2022-12-07T13:31:46;7.60;99.90
67974;DHT22;54756;51.140;6.952;2022-12-07T13:33:49;7.40;99.90
67974;DHT22;54756;51.140;6.952;2022-12-07T13:35:54;7.30;99.90
67974;DHT22;54756;51.140;6.952;2022-12-07T13:37:54;7.30;99.90
67974;DHT22;54756;51.140;6.952;2022-12-07T13:40:17;7.20;99.90
67974;DHT22;54756;51.140;6.952;2022-12-07T13:44:27;7.20;99.90
67974;DHT22;54756;51.140;6.952;2022-12-07T13:46:59;7.10;99.90
67974;DHT22;54756;51.140;6.952;2022-12-07T13:49:00;7.10;99.90
67974;DHT22;54756;51.140;6.952;2022-12-07T13:51:03;7.00;99.90
67974;DHT22;54756;51.140;6.952;2022-12-07T13:53:12;7.00;99.90
67974;DHT22;54756;51.140;6.952;2022-12-07T13:55:15;7.00;99.90
67974;DHT22;54756;51.140;6.952;2022-12-07T13:57:17;7.00;99.90
67974;DHT22;54756;51.140;6.952;2022-12-07T13:59:22;7.00;99.90
67974;DHT22;54756;51.140;6.952;2022-12-07T14:01:24;7.10;99.90
67974;DHT22;54756;51.140;6.952;2022-12-07T14:03:29;7.20;99.90
67974;DHT22;54756;51.140;6.952;2022-12-07T14:05:32;7.20;99.90
67974;DHT22;54756;51.140;6.952;2022-12-07T14:07:34;7.30;99.90
67974;DHT22;54756;51.140;6.952;2022-12-07T14:09:36;7.40;99.90
67974;DHT22;54756;51.140;6.952;2022-12-07T14:11:37;7.50;99.90
67974;DHT22;54756;51.140;6.952;2022-12-07T14:13:51;7.60;99.90
67974;DHT22;54756;51.140;6.952;2022-12-07T14:15:54;7.60;99.90
67974;DHT22;54756;51.140;6.952;2022-12-07T14:17:56;7.60;99.90
67974;DHT22;54756;51.140;6.952;2022-12-07T14:19:57;7.60;99.90
67974;DHT22;54756;51.140;6.952;2022-12-07T14:22:09;7.60;99.90
67974;DHT22;54756;51.140;6.952;2022-12-07T14:24:19;7.60;99.90
67974;DHT22;54756;51.140;6.952;2022-12-07T14:26:22;7.50;99.90
67974;DHT22;54756;51.140;6.952;2022-12-07T14:28:34;7.60;99.90
67974;DHT22;54756;51.140;6.952;2022-12-07T14:30:35;7.60;99.90
67974;DHT22;54756;51.140;6.952;2022-12-07T14:32:37;7.60;99.90
67974;DHT22;54756;51.140;6.952;2022-12-07T14:34:38;7.60;99.90
67974;DHT22;54756;51.140;6.952;2022-12-07T14:36:40;7.50;99.90
67974;DHT22;54756;51.140;6.952;2022-12-07T14:38:40;7.40;99.90
67974;DHT22;54756;51.140;6.952;2022-12-07T14:40:41;7.30;99.90
67974;DHT22;54756;51.140;6.952;2022-12-07T14:42:42;7.20;99.90
67974;DHT22;54756;51.140;6.952;2022-12-07T14:44:43;7.10;99.90
67974;DHT22;54756;51.140;6.952;2022-12-07T14:46:44;6.90;99.90
67974;DHT22;54756;51.140;6.952;2022-12-07T14:48:45;6.90;99.90
67974;DHT22;54756;51.140;6.952;2022-12-07T14:50:49;6.80;99.90
67974;DHT22;54756;51.140;6.952;2022-12-07T14:52:56;6.60;99.90
67974;DHT22;54756;51.140;6.952;2022-12-07T14:54:58;6.60;99.90